Ottumwa, Iowa
Current Conditions -  °F | °C
As of 10:53 PM on Saturday 20 Dec 2014 (Local Time) from KOTM Reporting Station
Haze Haze  
Wind Chill: 29°   Ceiling: 600
Heat Index: 36°   Visibility: 4mi
Dew Point: 34°   Wind: 9mph
Humidity: 93%   Direction: 160°SSE
Pressure: 30.13"   Gusts: NA
Location:  41.02°N, 92.41°W
Report Text: KOTM 210453Z AUTO 16008KT 4SM BR OVC006 02/01 A3013 RMK AO2 CIG 004V010 SLP211 T00220011
Loading
Personal Weather Stations






























Interactive Weather Map New forecast layout! Learn more

10-Day Weather Forecast

Advertisements
Track Severe Weather on mobile